Time;durP1;ratioP1;P1;durP2;ratioP2;P2;SDS_P1;SDS_P2;PMS_P1;PMS_P2;Temp;Humidity;BMP_temperature;BMP_pressure;BME280_temperature;BME280_humidity;BME280_pressure;Samples;Min_cycle;Max_cycle;Signal;HPM_P1;HPM_P2
2021/01/11 00:00:22;;;;;;;52.10;22.10;;;;;;;2.35;60.41;100323.97;4445755;32;33559;-82
2021/01/11 00:02:51;;;;;;;48.05;21.05;;;;;;;2.49;60.06;100319.59;4458268;32;33762;-83
2021/01/11 00:05:18;;;;;;;50.05;21.60;;;;;;;2.47;60.13;100323.06;4446472;32;34918;-82
2021/01/11 00:07:45;;;;;;;42.65;18.20;;;;;;;2.55;59.78;100323.94;4433705;32;35689;-83
2021/01/11 00:10:13;;;;;;;34.80;15.93;;;;;;;2.33;60.35;100324.84;4445471;32;33933;-82
2021/01/11 00:12:43;;;;;;;39.97;19.25;;;;;;;2.47;59.89;100318.75;4459099;32;33691;-82
2021/01/11 00:15:17;;;;;;;47.90;20.20;;;;;;;2.29;60.52;100319.66;4447256;32;35707;-82
2021/01/11 00:17:44;;;;;;;39.53;17.25;;;;;;;2.78;58.99;100313.44;4460074;32;34179;-82
2021/01/11 00:20:14;;;;;;;44.00;19.80;;;;;;;2.62;59.34;100323.06;4457444;32;34261;-82
2021/01/11 00:22:44;;;;;;;42.75;18.55;;;;;;;2.33;60.30;100322.25;4462191;32;33797;-82
2021/01/11 00:25:12;;;;;;;40.25;17.85;;;;;;;2.17;60.63;100322.28;4458790;32;33591;-81
2021/01/11 00:27:43;;;;;;;35.78;18.12;;;;;;;2.24;60.65;100324.00;4458779;32;34093;-81
2021/01/11 00:30:11;;;;;;;36.10;18.05;;;;;;;2.25;60.62;100323.12;4459311;32;34338;-81
2021/01/11 00:32:39;;;;;;;36.97;17.05;;;;;;;2.29;60.47;100319.66;4459869;32;33714;-81
2021/01/11 00:35:08;;;;;;;34.90;15.52;;;;;;;2.16;60.66;100323.16;4457979;32;33835;-81
2021/01/11 00:37:36;;;;;;;32.55;16.95;;;;;;;2.25;60.56;100330.94;4447355;32;34520;-80
2021/01/11 00:40:06;;;;;;;33.58;16.30;;;;;;;2.39;60.06;100322.25;4447960;32;33952;-81
2021/01/11 00:42:35;;;;;;;30.58;13.68;;;;;;;2.39;59.62;100323.12;4458804;32;33729;-81
2021/01/11 00:45:06;;;;;;;31.48;13.95;;;;;;;2.39;59.52;100327.47;4447688;32;33786;-82
2021/01/11 00:47:41;;;;;;;27.33;14.07;;;;;;;2.41;59.15;100328.31;4448781;32;33158;-81
2021/01/11 00:50:10;;;;;;;31.55;14.25;;;;;;;2.37;59.04;100324.84;4447958;32;32781;-82
2021/01/11 00:52:37;;;;;;;26.65;13.00;;;;;;;2.17;59.16;100327.47;4460168;32;34623;-82
2021/01/11 00:55:08;;;;;;;31.42;14.65;;;;;;;2.15;58.99;100324.03;4457499;32;34624;-81
2021/01/11 00:57:38;;;;;;;30.20;13.90;;;;;;;2.31;58.59;100328.31;4447072;32;32156;-82
2021/01/11 01:00:09;;;;;;;33.03;15.50;;;;;;;2.03;59.33;100329.22;4447349;32;32224;-81
2021/01/11 01:02:39;;;;;;;31.48;14.70;;;;;;;2.13;59.36;100328.34;4452043;32;34279;-81
2021/01/11 01:05:09;;;;;;;34.20;15.68;;;;;;;2.12;59.49;100323.16;4448262;32;33607;-81
2021/01/11 01:07:42;;;;;;;29.60;14.80;;;;;;;1.95;59.83;100325.78;4462949;32;33678;-81
2021/01/11 01:10:13;;;;;;;30.33;15.00;;;;;;;2.05;59.56;100317.09;4449861;32;34126;-81
2021/01/11 01:12:41;;;;;;;30.67;15.05;;;;;;;2.18;59.25;100317.91;4446952;32;33206;-81
2021/01/11 01:15:09;;;;;;;30.73;13.43;;;;;;;2.12;59.72;100321.41;4458088;32;34522;-81
2021/01/11 01:17:40;;;;;;;29.87;16.13;;;;;;;2.04;59.80;100320.53;4458524;32;33831;-81
2021/01/11 01:20:14;;;;;;;29.27;14.50;;;;;;;1.87;60.68;100319.69;4459440;32;34164;-82
2021/01/11 01:22:43;;;;;;;27.15;13.98;;;;;;;2.10;59.99;100315.34;4446337;32;33423;-82
2021/01/11 01:25:12;;;;;;;35.17;16.35;;;;;;;1.84;60.58;100322.28;4434779;32;34299;-82
2021/01/11 01:27:40;;;;;;;28.00;14.87;;;;;;;1.95;59.83;100320.56;4446666;32;35203;-83
2021/01/11 01:30:11;;;;;;;28.75;14.35;;;;;;;1.99;59.63;100327.50;4458365;32;33972;-83
2021/01/11 01:32:39;;;;;;;36.78;15.43;;;;;;;1.86;59.78;100333.59;4461430;32;33900;-83
2021/01/11 01:35:10;;;;;;;31.87;14.80;;;;;;;1.90;59.52;100323.19;4449826;32;33464;-82
2021/01/11 01:37:38;;;;;;;33.05;13.77;;;;;;;1.87;59.36;100330.12;4460662;32;33352;-82
2021/01/11 01:40:06;;;;;;;32.63;15.02;;;;;;;1.79;59.66;100330.97;4461614;32;32821;-83
2021/01/11 01:42:34;;;;;;;34.00;14.57;;;;;;;1.85;59.39;100316.22;4452032;32;33243;-82
2021/01/11 01:45:05;;;;;;;31.48;13.75;;;;;;;1.67;59.43;100320.56;4449853;32;35069;-83
2021/01/11 01:47:34;;;;;;;31.48;14.68;;;;;;;1.78;59.33;100315.34;4456470;32;33459;-83
2021/01/11 01:50:07;;;;;;;27.02;14.02;;;;;;;1.73;nan;100315.34;4437676;32;34187;-83
2021/01/11 01:52:36;;;;;;;31.30;14.50;;;;;;;1.48;60.13;100313.59;4451292;32;33535;-83
2021/01/11 01:55:05;;;;;;;30.35;15.02;;;;;;;1.57;60.55;100308.41;4448333;32;34695;-83
2021/01/11 01:57:32;;;;;;;30.95;14.77;;;;;;;1.64;59.80;100307.53;4460866;32;34368;-82
2021/01/11 02:00:00;;;;;;;29.65;14.50;;;;;;;1.64;59.46;100297.13;4445146;32;33254;-80
2021/01/11 02:02:28;;;;;;;29.55;14.60;;;;;;;1.63;59.15;100302.34;4460222;32;34552;-81
2021/01/11 02:04:55;;;;;;;26.87;13.02;;;;;;;1.25;60.18;100298.81;4447720;32;36146;-81
2021/01/11 02:07:56;;;;;;;32.22;14.25;;;;;;;1.33;60.07;100304.03;4437179;32;33178;-82
2021/01/11 02:10:37;;;;;;;32.53;15.35;;;;;;;1.25;60.13;100305.75;4441397;32;33284;-82
2021/01/11 02:13:28;;;;;;;30.43;15.07;;;;;;;1.44;59.61;100304.06;4448656;32;35377;-82
2021/01/11 02:16:05;;;;;;;33.08;14.30;;;;;;;1.35;60.22;100307.50;4478155;32;33758;-82
2021/01/11 02:18:46;;;;;;;30.88;14.43;;;;;;;1.14;60.30;100307.44;4447044;32;34429;-82
2021/01/11 02:21:44;;;;;;;34.38;15.30;;;;;;;1.30;59.65;100292.75;4446629;32;35074;-83
2021/01/11 02:24:40;;;;;;;27.58;13.30;;;;;;;1.39;59.24;100303.19;4461766;32;34257;-83
2021/01/11 02:27:36;;;;;;;29.12;14.00;;;;;;;1.17;59.77;100297.91;4449016;32;35199;-81
2021/01/11 02:30:05;;;;;;;32.00;13.40;;;;;;;1.11;60.01;100297.91;4460756;32;34293;-80
2021/01/11 02:32:32;;;;;;;27.13;12.23;;;;;;;1.12;59.90;100293.56;4462320;32;33977;-81
2021/01/11 02:35:03;;;;;;;28.42;14.25;;;;;;;0.58;61.14;100295.13;4448530;32;32351;-81
2021/01/11 02:37:32;;;;;;;32.75;12.98;;;;;;;0.92;60.50;100290.94;4446468;32;33316;-81
2021/01/11 02:40:00;;;;;;;25.62;11.88;;;;;;;0.98;60.50;100288.34;4445381;32;33968;-81
2021/01/11 02:42:27;;;;;;;25.20;12.50;;;;;;;1.02;59.93;100287.47;4448954;32;33027;-82
2021/01/11 02:44:55;;;;;;;27.50;13.38;;;;;;;0.90;60.42;100287.44;4445368;32;33764;-81
2021/01/11 02:47:26;;;;;;;27.80;13.70;;;;;;;1.00;60.16;100284.03;4461314;32;34511;-82
2021/01/11 02:49:57;;;;;;;24.80;12.05;;;;;;;0.87;60.40;100282.25;4435891;32;34885;-80
2021/01/11 02:52:30;;;;;;;30.23;12.23;;;;;;;0.67;60.80;100280.44;4444162;32;33231;-81
2021/01/11 02:55:06;;;;;;;30.65;13.55;;;;;;;0.73;60.72;100284.78;4461581;32;33316;-80
2021/01/11 02:58:05;;;;;;;26.25;12.65;;;;;;;0.74;60.08;100277.00;4446136;32;33014;-81
2021/01/11 03:00:37;;;;;;;26.23;12.60;;;;;;;0.76;59.73;100285.69;4461093;32;33329;-81
2021/01/11 03:03:05;;;;;;;27.40;13.43;;;;;;;0.67;60.10;100283.03;4461801;32;33441;-81
2021/01/11 03:05:32;;;;;;;26.25;11.40;;;;;;;0.56;60.91;100291.63;4449463;32;34412;-81
2021/01/11 03:08:00;;;;;;;26.27;12.10;;;;;;;0.62;60.87;100286.47;4459538;32;34671;-80
2021/01/11 03:10:28;;;;;;;24.45;12.85;;;;;;;0.56;60.65;100284.72;4457534;32;33760;-81
2021/01/11 03:12:55;;;;;;;30.30;11.85;;;;;;;0.62;60.66;100287.34;4448950;32;33351;-82
2021/01/11 03:15:22;;;;;;;28.58;12.45;;;;;;;0.65;60.23;100291.69;4460491;32;33736;-82
2021/01/11 03:17:50;;;;;;;29.75;13.55;;;;;;;0.72;59.92;100294.31;4449217;32;34444;-82
2021/01/11 03:20:17;;;;;;;28.00;14.23;;;;;;;0.49;60.11;100295.94;4458452;32;35391;-82
2021/01/11 03:22:44;;;;;;;30.65;14.18;;;;;;;0.49;60.89;100293.34;4446443;32;34011;-81
2021/01/11 03:25:12;;;;;;;32.60;14.02;;;;;;;0.43;61.44;100288.13;4460787;32;33456;-80
2021/01/11 03:27:39;;;;;;;32.47;13.55;;;;;;;0.33;61.74;100286.31;4463808;32;34520;-80
2021/01/11 03:30:07;;;;;;;31.15;12.80;;;;;;;0.40;61.25;100288.09;4461574;32;33421;-80
2021/01/11 03:32:34;;;;;;;34.00;14.87;;;;;;;0.62;60.36;100282.16;4445607;32;32916;-80
2021/01/11 03:35:02;;;;;;;26.98;12.73;;;;;;;0.54;60.45;100291.63;4447958;32;33318;-81
2021/01/11 03:37:29;;;;;;;27.27;12.95;;;;;;;0.48;60.39;100294.22;4447667;32;34672;-80
2021/01/11 03:39:57;;;;;;;27.48;13.05;;;;;;;0.57;59.87;100288.16;4448789;32;33322;-81
2021/01/11 03:42:24;;;;;;;27.87;13.13;;;;;;;0.62;59.99;100287.34;4460399;32;32903;-81
2021/01/11 03:44:51;;;;;;;27.25;13.80;;;;;;;0.34;61.31;100283.75;4449094;32;33617;-81
2021/01/11 03:47:19;;;;;;;29.83;14.20;;;;;;;0.38;61.20;100292.41;4458786;32;33834;-81
2021/01/11 03:49:47;;;;;;;32.50;15.45;;;;;;;0.38;61.37;100284.59;4456278;32;34539;-81
2021/01/11 03:52:14;;;;;;;32.22;13.25;;;;;;;0.34;61.38;100286.34;4445549;32;34235;-81
2021/01/11 03:54:42;;;;;;;29.00;13.18;;;;;;;0.19;61.61;100287.13;4436989;32;34647;-81
2021/01/11 03:57:09;;;;;;;29.95;14.18;;;;;;;0.58;60.14;100284.72;4447379;32;33829;-81
2021/01/11 03:59:36;;;;;;;35.38;16.05;;;;;;;0.04;62.08;100287.00;4446978;32;34533;-81
2021/01/11 04:02:04;;;;;;;28.42;14.02;;;;;;;0.20;61.57;100283.66;4459818;32;33399;-82
2021/01/11 04:04:31;;;;;;;31.70;13.88;;;;;;;0.13;62.02;100287.06;4459887;32;34385;-82
2021/01/11 04:06:59;;;;;;;34.25;14.68;;;;;;;0.08;62.04;100287.91;4441574;32;34726;-82
2021/01/11 04:09:26;;;;;;;30.98;14.68;;;;;;;0.10;62.23;100289.66;4445751;32;33334;-82
2021/01/11 04:11:53;;;;;;;29.33;14.05;;;;;;;0.23;61.65;100288.84;4460242;32;33857;-81
2021/01/11 04:14:20;;;;;;;34.45;15.02;;;;;;;0.22;61.54;100292.31;4459485;32;33303;-82
2021/01/11 04:16:52;;;;;;;34.15;14.45;;;;;;;0.25;61.66;100297.53;4436057;32;35675;-82
2021/01/11 04:19:19;;;;;;;32.88;15.13;;;;;;;0.30;61.58;100300.19;4459378;32;33472;-81
2021/01/11 04:21:47;;;;;;;34.80;16.40;;;;;;;0.19;62.06;100302.72;4460727;32;33355;-81
2021/01/11 04:24:14;;;;;;;37.90;16.33;;;;;;;0.43;61.41;100286.41;4461662;32;33475;-81
2021/01/11 04:26:45;;;;;;;33.08;15.65;;;;;;;0.32;62.36;100302.78;4465051;32;33724;-81
2021/01/11 04:29:12;;;;;;;33.10;16.23;;;;;;;0.37;61.98;100299.34;4458139;32;33638;-81
2021/01/11 04:31:40;;;;;;;33.90;15.85;;;;;;;0.56;61.43;100294.22;4449463;32;33868;-81
2021/01/11 04:34:08;;;;;;;34.92;15.63;;;;;;;0.62;61.24;100292.56;4460230;32;34296;-81
2021/01/11 04:36:35;;;;;;;34.58;16.62;;;;;;;0.62;61.02;100297.75;4451573;32;33323;-81
2021/01/11 04:39:03;;;;;;;35.92;17.48;;;;;;;0.45;61.82;100291.59;4460897;32;34698;-80
2021/01/11 04:41:35;;;;;;;38.20;17.23;;;;;;;0.53;61.57;100292.50;4449422;32;33382;-81
2021/01/11 04:44:07;;;;;;;32.22;16.42;;;;;;;0.66;60.84;100294.28;4451162;32;34575;-81
2021/01/11 04:46:35;;;;;;;35.10;16.33;;;;;;;0.56;60.85;100292.50;4461821;32;34741;-81
2021/01/11 04:49:02;;;;;;;37.45;16.73;;;;;;;0.55;60.86;100290.78;4460485;32;33722;-81
2021/01/11 04:51:33;;;;;;;35.42;16.95;;;;;;;0.50;61.66;100295.09;4460295;32;34058;-82
2021/01/11 04:54:01;;;;;;;36.15;16.92;;;;;;;0.46;61.22;100295.91;4460007;32;33611;-82
2021/01/11 04:56:28;;;;;;;36.38;17.80;;;;;;;0.41;61.31;100298.50;4462991;32;34411;-82
2021/01/11 04:58:58;;;;;;;33.75;17.27;;;;;;;0.55;60.90;100302.91;4460360;32;33447;-82
2021/01/11 05:01:28;;;;;;;36.70;18.35;;;;;;;0.42;60.93;100299.34;4463722;32;33372;-82
2021/01/11 05:03:59;;;;;;;39.42;18.60;;;;;;;0.36;61.55;100300.19;4455223;32;34502;-82
2021/01/11 05:06:28;;;;;;;43.10;18.75;;;;;;;0.49;61.41;100296.81;4459080;32;33941;-82
2021/01/11 05:09:06;;;;;;;38.92;17.30;;;;;;;0.41;62.36;100289.84;4450774;32;34673;-82
2021/01/11 05:11:34;;;;;;;40.90;18.17;;;;;;;0.46;62.04;100296.78;4460476;32;34185;-81
2021/01/11 05:14:01;;;;;;;41.83;19.23;;;;;;;0.37;61.92;100298.47;4460222;32;34406;-81
2021/01/11 05:16:29;;;;;;;38.17;18.12;;;;;;;0.48;61.70;100296.81;4460398;32;33501;-81
2021/01/11 05:19:23;;;;;;;36.75;16.98;;;;;;;0.51;61.53;100299.41;4447222;32;33597;-81
2021/01/11 05:21:52;;;;;;;38.65;18.17;;;;;;;0.59;60.96;100287.34;4445420;32;33923;-81
2021/01/11 05:24:36;;;;;;;41.08;18.90;;;;;;;0.56;60.91;100295.09;4446577;32;33554;-81
2021/01/11 05:27:08;;;;;;;37.45;17.27;;;;;;;0.64;60.64;100296.00;4461761;32;33489;-81
2021/01/11 05:29:38;;;;;;;39.47;18.27;;;;;;;0.62;61.00;100292.56;4445438;32;33408;-81
2021/01/11 05:32:08;;;;;;;39.58;19.67;;;;;;;0.43;61.37;100290.72;4446472;32;33326;-82
2021/01/11 05:34:50;;;;;;;37.38;18.73;;;;;;;0.27;62.18;100292.34;4458521;32;33748;-82
2021/01/11 05:37:40;;;;;;;38.97;19.10;;;;;;;0.23;62.74;100294.06;4460080;32;33835;-80
2021/01/11 05:40:15;;;;;;;40.75;17.75;;;;;;;0.25;62.43;100297.53;4441970;32;33545;-80
2021/01/11 05:42:52;;;;;;;41.67;18.52;;;;;;;0.06;62.96;100298.28;4445901;32;32469;-82
2021/01/11 05:45:28;;;;;;;38.58;19.12;;;;;;;0.27;62.06;100307.06;4447158;32;33198;-81
2021/01/11 05:48:08;;;;;;;38.78;17.60;;;;;;;0.31;61.57;100306.22;4460985;32;34701;-81
2021/01/11 05:50:45;;;;;;;38.55;17.37;;;;;;;0.15;61.66;100306.16;4458628;32;34435;-81
2021/01/11 05:53:17;;;;;;;37.42;19.33;;;;;;;0.16;61.92;100309.59;4454057;32;32995;-82
2021/01/11 05:55:49;;;;;;;37.28;18.45;;;;;;;0.18;61.68;100311.34;4463348;32;33657;-82
2021/01/11 05:58:18;;;;;;;42.62;18.80;;;;;;;0.30;61.46;100317.50;4447977;32;31849;-82
2021/01/11 06:00:49;;;;;;;47.45;19.87;;;;;;;0.19;61.87;100317.41;4449338;32;34040;-82
2021/01/11 06:03:17;;;;;;;39.33;19.08;;;;;;;0.25;61.76;100323.53;4461942;32;33101;-83
2021/01/11 06:05:44;;;;;;;41.08;19.33;;;;;;;0.23;61.54;100319.16;4459091;32;34647;-82
2021/01/11 06:08:13;;;;;;;40.47;18.77;;;;;;;0.21;61.44;100316.56;4444625;32;35392;-82
2021/01/11 06:10:43;;;;;;;43.78;20.40;;;;;;;0.19;61.06;100315.69;4444242;32;33612;-82
2021/01/11 06:13:12;;;;;;;45.15;18.85;;;;;;;0.21;61.10;100324.34;4450699;32;33922;-82
2021/01/11 06:15:40;;;;;;;38.42;19.27;;;;;;;0.23;60.73;100320.03;4443490;32;33485;-82
2021/01/11 06:18:09;;;;;;;41.78;19.00;;;;;;;0.13;60.62;100315.63;4457140;32;33779;-82
2021/01/11 06:20:42;;;;;;;38.78;18.30;;;;;;;0.14;60.80;100319.09;4449745;32;33834;-82
2021/01/11 06:23:24;;;;;;;37.28;18.40;;;;;;;0.18;60.91;100321.72;4444646;32;32636;-85
2021/01/11 06:25:52;;;;;;;35.75;17.83;;;;;;;0.21;60.73;100324.34;4433416;32;33324;-85
2021/01/11 06:28:31;;;;;;;43.85;19.40;;;;;;;0.22;60.72;100328.69;4429968;32;35465;-84
2021/01/11 06:31:10;;;;;;;35.42;17.75;;;;;;;0.13;60.89;100328.63;4444698;32;33810;-84
2021/01/11 06:33:38;;;;;;;45.08;20.77;;;;;;;0.30;60.47;100325.28;4448129;32;34604;-84
2021/01/11 06:36:44;;;;;;;39.42;18.90;;;;;;;0.23;60.71;100330.41;4443931;32;34581;-84
2021/01/11 06:39:12;;;;;;;41.47;18.50;;;;;;;0.08;61.03;100334.66;4378927;32;33711;-84
2021/01/11 06:41:40;;;;;;;42.78;19.75;;;;;;;0.14;60.48;100338.16;4405803;32;33455;-84
2021/01/11 06:44:09;;;;;;;44.25;19.27;;;;;;;-0.09;61.37;100342.31;4408694;32;33747;-84
2021/01/11 06:46:42;;;;;;;43.45;19.92;;;;;;;-0.19;62.00;100341.38;4446825;32;34394;-84
2021/01/11 06:49:23;;;;;;;43.22;19.35;;;;;;;-0.07;61.30;100341.47;4459139;32;34970;-88
2021/01/11 06:52:12;;;;;;;38.72;17.98;;;;;;;-0.10;60.83;100346.63;4447483;32;34463;-84
2021/01/11 06:54:46;;;;;;;40.72;19.08;;;;;;;-0.07;60.89;100357.03;4461173;32;33975;-84
2021/01/11 06:57:19;;;;;;;44.40;20.92;;;;;;;-0.19;61.22;100349.16;4445602;32;32691;-83
2021/01/11 06:59:47;;;;;;;39.38;19.85;;;;;;;-0.29;61.98;100350.78;4434097;32;35629;-83
2021/01/11 07:02:20;;;;;;;50.75;22.73;;;;;;;-0.58;61.91;100350.50;4455732;32;32759;-84
2021/01/11 07:04:47;;;;;;;50.35;22.10;;;;;;;-0.38;62.33;100348.13;4446317;32;33154;-83
2021/01/11 07:07:21;;;;;;;43.10;20.73;;;;;;;-0.28;62.05;100347.34;4446622;32;34157;-83
2021/01/11 07:09:59;;;;;;;44.45;19.35;;;;;;;-0.15;61.46;100353.50;4461776;32;35367;-83
2021/01/11 07:12:27;;;;;;;49.78;20.83;;;;;;;-0.23;61.75;100349.13;4457397;32;34348;-83
2021/01/11 07:15:05;;;;;;;39.08;19.27;;;;;;;-0.05;61.21;100352.75;4442031;32;34417;-83
2021/01/11 07:17:38;;;;;;;47.08;21.40;;;;;;;-0.43;62.38;100349.78;4454459;32;34234;-83
2021/01/11 07:20:07;;;;;;;41.10;20.25;;;;;;;-0.46;62.68;100347.19;4443828;32;33934;-83
2021/01/11 07:22:37;;;;;;;36.78;19.23;;;;;;;-0.50;61.86;100348.00;4459726;32;33554;-84
2021/01/11 07:25:24;;;;;;;43.03;18.87;;;;;;;-0.57;62.24;100348.78;4447393;32;32821;-83
2021/01/11 07:28:00;;;;;;;46.05;20.37;;;;;;;-0.76;63.13;100339.94;4457857;32;33634;-83
2021/01/11 07:30:28;;;;;;;43.65;19.27;;;;;;;-0.70;64.15;100336.56;4456168;32;35431;-83
2021/01/11 07:32:56;;;;;;;47.85;22.55;;;;;;;-0.60;63.91;100338.37;4454455;32;34082;-83
2021/01/11 07:35:24;;;;;;;52.55;20.80;;;;;;;-0.35;63.50;100335.16;4460203;32;33079;-83
2021/01/11 07:37:51;;;;;;;45.22;22.50;;;;;;;-0.31;63.86;100342.13;4455077;32;33654;-82
2021/01/11 07:40:21;;;;;;;51.35;22.50;;;;;;;-0.30;63.66;100343.00;4457524;32;33548;-83
2021/01/11 07:42:49;;;;;;;62.40;24.37;;;;;;;-0.23;63.66;100349.13;4444302;32;33693;-83
2021/01/11 07:45:17;;;;;;;61.47;28.70;;;;;;;-0.08;63.62;100346.66;4455343;32;34615;-83
2021/01/11 07:47:52;;;;;;;51.35;24.87;;;;;;;-0.13;64.25;100351.81;4459085;32;31871;-83
2021/01/11 07:50:20;;;;;;;43.00;20.40;;;;;;;0.24;63.49;100346.91;4457557;32;33629;-83
2021/01/11 07:52:48;;;;;;;46.83;20.80;;;;;;;0.47;62.83;100354.81;4460493;32;34672;-83
2021/01/11 07:55:27;;;;;;;43.58;21.27;;;;;;;0.49;62.75;100364.38;4450912;32;33081;-83
2021/01/11 07:58:02;;;;;;;44.97;20.55;;;;;;;0.36;63.14;100364.28;4460415;32;33659;-83
2021/01/11 08:00:29;;;;;;;44.83;21.33;;;;;;;0.50;63.25;100362.63;4446638;32;34493;-83
2021/01/11 08:02:58;;;;;;;37.85;19.02;;;;;;;0.61;62.65;100360.97;4457994;32;33601;-83
2021/01/11 08:05:31;;;;;;;45.90;21.08;;;;;;;0.75;62.19;100361.91;4460419;32;33459;-84
2021/01/11 08:08:04;;;;;;;41.53;19.85;;;;;;;0.66;62.87;100363.59;4445404;32;33801;-84
2021/01/11 08:10:33;;;;;;;36.83;19.25;;;;;;;0.63;63.14;100373.97;4463424;32;34544;-84
2021/01/11 08:13:07;;;;;;;37.50;18.65;;;;;;;0.84;62.23;100370.62;4459301;32;34607;-83
2021/01/11 08:15:35;;;;;;;42.03;21.55;;;;;;;1.12;61.33;100364.66;4448290;32;33997;-83
2021/01/11 08:18:03;;;;;;;35.47;17.98;;;;;;;1.24;61.09;100372.53;4450742;32;32975;-83
2021/01/11 08:20:30;;;;;;;39.25;18.05;;;;;;;1.14;61.48;100377.66;4447179;32;34945;-83
2021/01/11 08:23:11;;;;;;;39.15;19.50;;;;;;;0.93;63.04;100381.06;4464348;32;34061;-82
2021/01/11 08:25:39;;;;;;;39.15;18.33;;;;;;;1.16;62.10;100387.22;4449691;32;34551;-82
2021/01/11 08:28:08;;;;;;;35.35;17.75;;;;;;;1.23;62.00;100386.37;4450182;32;33632;-82
2021/01/11 08:30:35;;;;;;;38.40;18.85;;;;;;;1.06;62.79;100387.19;4451211;32;32188;-81
2021/01/11 08:33:07;;;;;;;42.38;18.37;;;;;;;1.34;62.12;100393.37;4462252;32;33641;-81
2021/01/11 08:35:35;;;;;;;;;;;;;;;1.42;62.26;100387.28;4459430;32;34142;-81
2021/01/11 08:38:03;;;;;;;38.72;18.87;;;;;;;1.59;61.88;100391.69;4451577;32;33921;-81
2021/01/11 08:40:34;;;;;;;30.50;15.63;;;;;;;1.62;61.94;100395.19;4449262;32;34725;-81
2021/01/11 08:43:30;;;;;;;31.93;14.77;;;;;;;1.78;60.64;100396.94;4448887;32;34774;-81
2021/01/11 08:46:02;;;;;;;31.35;14.32;;;;;;;2.08;59.79;100392.59;4459075;32;32487;-81
2021/01/11 08:48:31;;;;;;;28.62;14.75;;;;;;;2.13;59.22;100397.81;4463364;32;33848;-81
2021/01/11 08:50:59;;;;;;;29.42;14.20;;;;;;;2.00;59.57;100399.56;4448137;32;33446;-81
2021/01/11 08:53:30;;;;;;;33.30;15.40;;;;;;;2.03;59.54;100397.81;4448839;32;32984;-81
2021/01/11 08:56:04;;;;;;;31.75;15.10;;;;;;;2.20;59.32;100410.84;4462064;32;33588;-81
2021/01/11 08:58:32;;;;;;;34.33;16.30;;;;;;;2.15;59.78;100410.00;4459324;32;33602;-81
2021/01/11 09:01:16;;;;;;;28.27;15.00;;;;;;;2.23;59.47;100400.44;4447786;32;34332;-81
2021/01/11 09:03:50;;;;;;;29.70;14.40;;;;;;;2.17;59.24;100405.63;4445389;32;33603;-81
2021/01/11 09:06:37;;;;;;;29.37;14.70;;;;;;;1.76;60.29;100410.84;4463116;32;33309;-81
2021/01/11 09:09:12;;;;;;;25.12;13.32;;;;;;;2.04;59.13;100407.38;4446258;32;33610;-81
2021/01/11 09:11:40;;;;;;;29.23;14.52;;;;;;;2.18;58.25;100407.38;4436569;32;34662;-81
2021/01/11 09:14:10;;;;;;;29.52;14.02;;;;;;;2.13;58.38;100409.09;4463029;32;33404;-81
2021/01/11 09:16:37;;;;;;;29.12;13.88;;;;;;;2.05;58.03;100416.06;4448310;32;33035;-81
2021/01/11 09:19:06;;;;;;;26.00;14.15;;;;;;;1.81;58.80;100416.03;4463013;32;33799;-81
2021/01/11 09:21:33;;;;;;;25.80;14.07;;;;;;;1.65;59.68;100408.19;4461973;32;34625;-82
2021/01/11 09:24:01;;;;;;;28.30;14.15;;;;;;;1.75;59.21;100406.47;4461953;32;34325;-81
2021/01/11 09:26:33;;;;;;;26.52;14.30;;;;;;;1.68;59.47;100409.94;4451451;32;33467;-81
2021/01/11 09:29:01;;;;;;;29.95;14.82;;;;;;;1.41;60.57;100413.31;4459767;32;33030;-81
2021/01/11 09:31:28;;;;;;;28.10;14.57;;;;;;;1.56;59.22;100410.75;4460755;32;34609;-81
2021/01/11 09:34:01;;;;;;;33.55;15.65;;;;;;;1.47;59.81;100410.72;4449410;32;34366;-81
2021/01/11 09:36:33;;;;;;;30.02;16.25;;;;;;;1.11;61.22;100414.09;4461753;32;34035;-81
2021/01/11 09:39:04;;;;;;;39.15;17.55;;;;;;;1.44;60.44;100421.16;4450795;32;34607;-81
2021/01/11 09:41:31;;;;;;;33.00;17.02;;;;;;;1.36;60.41;100415.91;4460250;32;33460;-81
2021/01/11 09:43:58;;;;;;;32.13;16.65;;;;;;;1.53;60.45;100418.59;4445703;32;31834;-81
2021/01/11 09:46:26;;;;;;;39.72;19.80;;;;;;;1.99;59.00;100416.03;4465632;32;34490;-81
2021/01/11 09:48:54;;;;;;;38.13;18.40;;;;;;;2.08;58.64;100409.97;4446350;32;33920;-84
2021/01/11 09:51:28;;;;;;;33.10;17.48;;;;;;;1.92;59.53;100409.09;4447545;32;34421;-83
2021/01/11 09:53:55;;;;;;;37.15;17.50;;;;;;;2.13;58.96;100403.91;4457048;32;33307;-84
2021/01/11 09:56:23;;;;;;;34.83;17.60;;;;;;;2.12;58.58;100404.78;4444164;32;33551;-85
2021/01/11 09:58:51;;;;;;;30.90;15.93;;;;;;;2.58;58.06;100409.97;4458602;32;34988;-86
2021/01/11 10:01:19;;;;;;;28.77;16.10;;;;;;;2.02;58.29;100401.28;4461524;32;33833;-85
2021/01/11 10:03:48;;;;;;;30.52;15.63;;;;;;;2.65;57.05;100398.62;4445247;32;33624;-81
2021/01/11 10:06:16;;;;;;;39.53;17.65;;;;;;;3.18;55.44;100388.91;4447801;32;32238;-81
2021/01/11 10:08:43;;;;;;;28.40;14.75;;;;;;;3.44;54.88;100391.41;4441576;32;33060;-80
2021/01/11 10:11:14;;;;;;;30.67;15.48;;;;;;;3.42;54.20;100386.22;4458343;32;34672;-80
2021/01/11 10:13:41;;;;;;;27.52;14.77;;;;;;;2.94;54.65;100390.72;4459192;32;33353;-80
2021/01/11 10:16:09;;;;;;;34.72;17.90;;;;;;;3.37;54.36;100395.81;4445803;32;31610;-80
2021/01/11 10:18:37;;;;;;;36.78;18.08;;;;;;;3.14;54.21;100393.28;4456131;32;34211;-81
2021/01/11 10:21:04;;;;;;;28.52;15.35;;;;;;;3.18;54.04;100395.03;4455599;32;34239;-81
2021/01/11 10:23:31;;;;;;;28.58;14.73;;;;;;;3.63;53.41;100387.81;4450181;32;31268;-81
2021/01/11 10:25:59;;;;;;;27.02;13.55;;;;;;;3.98;52.55;100394.53;4458948;32;31041;-80
2021/01/11 10:28:26;;;;;;;27.15;15.30;;;;;;;3.95;52.06;100389.37;4457590;32;33777;-81
2021/01/11 10:30:54;;;;;;;30.15;15.48;;;;;;;3.66;53.46;100387.81;4455515;32;35243;-81
2021/01/11 10:33:22;;;;;;;27.70;14.55;;;;;;;3.73;53.44;100389.50;4454421;32;34048;-81
2021/01/11 10:35:58;;;;;;;29.05;14.30;;;;;;;3.62;54.37;100386.09;4457679;32;33897;-81
2021/01/11 10:38:26;;;;;;;29.52;14.85;;;;;;;3.72;54.30;100385.16;4447791;32;33891;-81
2021/01/11 10:40:53;;;;;;;28.92;15.15;;;;;;;3.51;54.98;100385.25;4454237;32;31846;-81
2021/01/11 10:43:20;;;;;;;27.00;14.38;;;;;;;3.54;55.03;100380.91;4456497;32;33604;-81
2021/01/11 10:45:47;;;;;;;27.17;14.50;;;;;;;3.45;55.38;100380.94;4446563;32;33388;-81
2021/01/11 10:48:15;;;;;;;28.10;16.23;;;;;;;3.44;55.54;100380.97;4458968;32;34310;-81
2021/01/11 10:50:42;;;;;;;32.95;15.45;;;;;;;3.46;56.09;100379.22;4459191;32;95637;-81
2021/01/11 10:53:10;;;;;;;31.62;15.65;;;;;;;3.62;55.24;100380.00;4447638;32;33898;-81
2021/01/11 10:55:37;;;;;;;29.95;14.63;;;;;;;3.69;55.32;100382.56;4460202;32;33345;-80
2021/01/11 10:58:05;;;;;;;28.55;14.95;;;;;;;3.60;54.61;100374.78;4444101;32;34447;-81
2021/01/11 11:00:32;;;;;;;28.35;14.75;;;;;;;3.67;55.26;100368.66;4456757;32;34658;-81
2021/01/11 11:03:00;;;;;;;33.95;15.05;;;;;;;3.87;54.61;100373.72;4460513;32;33779;-81
2021/01/11 11:05:27;;;;;;;31.48;14.55;;;;;;;4.07;54.05;100368.34;4457606;32;35691;-84
2021/01/11 11:07:55;;;;;;;27.70;15.15;;;;;;;4.10;54.26;100363.97;4460249;32;33602;-83
2021/01/11 11:10:22;;;;;;;30.10;15.63;;;;;;;4.14;53.93;100362.19;4432591;32;35192;-80
2021/01/11 11:12:49;;;;;;;31.33;15.13;;;;;;;4.34;53.32;100362.87;4456496;32;34344;-80
2021/01/11 11:15:17;;;;;;;28.73;15.20;;;;;;;4.27;53.47;100365.56;4471185;32;33308;-81
2021/01/11 11:17:44;;;;;;;29.77;16.83;;;;;;;4.34;53.55;100354.19;4454852;32;33661;-81
2021/01/11 11:20:13;;;;;;;32.35;17.12;;;;;;;4.51;53.26;100356.59;4446423;32;34737;-80
2021/01/11 11:22:41;;;;;;;29.35;16.55;;;;;;;4.79;52.58;100357.19;4459770;32;33880;-80
2021/01/11 11:25:09;;;;;;;28.75;15.77;;;;;;;4.84;52.37;100352.75;4445895;32;31230;-80
2021/01/11 11:27:36;;;;;;;31.17;17.02;;;;;;;5.12;50.92;100348.06;4460745;32;33528;-80
2021/01/11 11:30:07;;;;;;;31.15;16.60;;;;;;;5.12;50.63;100342.81;4443371;32;33854;-81
2021/01/11 11:32:35;;;;;;;33.20;17.10;;;;;;;5.29;50.62;100335.63;4458983;32;33328;-81